Impacts TAF Board
For situational awareness. Not to be used for flight planning purposes.
IDs:

KMDW - Chicago/Midway Intl, IL, US

Issued at 1130 UTC 13 Dec 2019
Updated at 1419 UTC 13 Dec 2019
Potential Impact None Slight Moderate High
Time1353Z 13/15Z 13/16Z 13/17Z 13/18Z 13/19Z 13/20Z 13/21Z 13/22Z 13/23Z 14/00Z 14/01Z 14/02Z 14/03Z>>
Type OBS PRVL PRVL PRVL PRVL PRVL PRVL PRVL PRVL PRVL PRVL PRVL PRVL PRVL
VIS 10 >6 >6 >6 >6 >6 >6 >6 >6 >6 >6 >6 >6 >6
CIG 120 40 40 40 40 40 40 40 40 100 100 100 100 100
Cover OVC BKN BKN BKN BKN BKN BKN BKN BKN BKN BKN BKN BKN BKN
FltCat VFR VFR VFR VFR VFR VFR VFR VFR VFR VFR VFR VFR VFR VFR
WX -- -- -- -- -- -- -- -- -- -- -- -- -- --
WDir 190 220 220 220 220 220 220 220 220 VRB VRB VRB VRB VRB
WSpd 6 5 5 5 5 5 5 5 5 0 0 0 0 0
WGst -- -- -- -- -- -- -- -- -- -- -- -- -- --
Raw TAF
KMDW 131130Z 1312/1418 22005KT P6SM BKN040
  FM132300 00000KT P6SM SCT040 BKN100
  FM140800 33005KT P6SM OVC015
  PROB30 1410/1416 -SN


Raw METAR
KMDW 131353Z 19006KT 10SM FEW042 OVC120 03/M02 A2996 RMK AO2 SLP152 T00281022
KMDW 131253Z 21003KT 10SM BKN042 OVC110 03/M03 A2996 RMK AO2 SLP154 T00281028
KMDW 131153Z 20005KT 10SM BKN044 OVC120 03/M03 A2996 RMK AO2 SLP153 T00331028 10039 20028 56011

METAR Board
Radar Display
Forecast Discussion
For situational awareness. Not to be used for flight planning purposes.